createdAt,value
2018-05-18T00:00:16.218Z,12.26
2018-05-18T00:02:46.178Z,12.16
2018-05-18T00:05:14.573Z,12.09
2018-05-18T00:07:42.920Z,12.00
2018-05-18T00:10:11.267Z,11.97
2018-05-18T00:12:39.667Z,11.87
2018-05-18T00:15:08.018Z,11.87
2018-05-18T00:17:36.456Z,11.85
2018-05-18T00:20:04.791Z,11.83
2018-05-18T00:22:33.135Z,11.76
2018-05-18T00:25:01.535Z,11.76
2018-05-18T00:27:29.877Z,11.76
2018-05-18T00:29:58.209Z,11.74
2018-05-18T00:32:26.566Z,11.73
2018-05-18T00:34:55.148Z,11.64
2018-05-18T00:37:23.618Z,11.62
2018-05-18T00:39:52.057Z,11.55
2018-05-18T00:42:20.348Z,11.56
2018-05-18T00:44:48.684Z,11.52
2018-05-18T00:47:17.067Z,11.51
2018-05-18T00:49:45.500Z,11.46
2018-05-18T00:52:13.857Z,11.45
2018-05-18T00:54:42.188Z,11.32
2018-05-18T00:57:10.534Z,11.34
2018-05-18T00:59:38.875Z,11.30
2018-05-18T01:02:07.226Z,11.26
2018-05-18T01:04:35.579Z,11.23
2018-05-18T01:07:04.304Z,11.09
2018-05-18T01:09:32.648Z,11.02
2018-05-18T01:12:01.003Z,10.95
2018-05-18T01:14:34.748Z,10.97
2018-05-18T01:17:02.892Z,10.98
2018-05-18T01:19:31.284Z,10.94
2018-05-18T01:21:59.772Z,10.85
2018-05-18T01:24:28.127Z,10.83
2018-05-18T01:26:56.457Z,10.81
2018-05-18T01:29:24.862Z,10.75
2018-05-18T01:31:53.205Z,10.73
2018-05-18T01:34:21.551Z,10.67
2018-05-18T01:36:49.900Z,10.72
2018-05-18T01:39:18.360Z,10.64
2018-05-18T01:41:46.701Z,10.63
2018-05-18T01:44:15.125Z,10.57
2018-05-18T01:46:43.535Z,10.54
2018-05-18T01:49:15.879Z,10.51
2018-05-18T01:51:44.290Z,10.46
2018-05-18T01:54:12.649Z,10.44
2018-05-18T01:56:41.077Z,10.40
2018-05-18T01:59:09.436Z,10.35
2018-05-18T02:01:37.759Z,10.36
2018-05-18T02:04:06.142Z,10.33
2018-05-18T02:06:34.478Z,10.26
2018-05-18T02:09:02.804Z,10.25
2018-05-18T02:11:31.153Z,10.18
2018-05-18T02:13:59.481Z,10.18
2018-05-18T02:16:27.834Z,10.12
2018-05-18T02:18:56.180Z,10.12
2018-05-18T02:21:24.526Z,10.11
2018-05-18T02:23:52.988Z,10.05
2018-05-18T02:26:21.324Z,10.00
2018-05-18T02:28:49.670Z,9.96
2018-05-18T02:31:18.008Z,9.98
2018-05-18T02:33:46.351Z,9.91
2018-05-18T02:36:14.702Z,9.88
2018-05-18T02:38:43.047Z,9.87
2018-05-18T02:41:11.439Z,9.84
2018-05-18T02:43:39.771Z,9.84
2018-05-18T02:46:08.101Z,9.82
2018-05-18T02:48:36.460Z,9.81
2018-05-18T02:51:05.255Z,9.78
2018-05-18T02:53:33.680Z,9.76
2018-05-18T02:56:02.116Z,9.69
2018-05-18T02:58:30.487Z,9.73
2018-05-18T03:00:58.819Z,9.73
2018-05-18T03:03:27.152Z,9.69
2018-05-18T03:05:55.574Z,9.66
2018-05-18T03:08:23.939Z,9.62
2018-05-18T03:10:52.264Z,9.61
2018-05-18T03:13:20.614Z,9.58
2018-05-18T03:15:48.928Z,9.54
2018-05-18T03:18:17.368Z,9.53
2018-05-18T03:20:46.280Z,9.52
2018-05-18T03:23:14.634Z,9.52
2018-05-18T03:25:43.401Z,9.55
2018-05-18T03:28:11.738Z,9.51
2018-05-18T03:30:40.170Z,9.55
2018-05-18T03:33:08.493Z,9.58
2018-05-18T03:35:36.860Z,9.59
2018-05-18T03:38:05.183Z,9.65
2018-05-18T03:40:33.520Z,9.75
2018-05-18T03:43:01.871Z,9.83
2018-05-18T03:45:30.218Z,9.88
2018-05-18T03:47:58.602Z,9.98
2018-05-18T03:50:27.360Z,10.09
2018-05-18T03:52:55.816Z,10.19
2018-05-18T03:55:24.270Z,10.40
2018-05-18T03:57:52.848Z,10.49
2018-05-18T04:00:21.456Z,10.52
2018-05-18T04:03:02.290Z,10.63
2018-05-18T04:05:42.435Z,10.63
2018-05-18T04:08:22.660Z,10.72
2018-05-18T04:10:51.048Z,10.73
2018-05-18T04:13:19.383Z,10.84
2018-05-18T04:15:47.833Z,10.94
2018-05-18T04:18:16.175Z,10.94
2018-05-18T04:20:44.855Z,11.08
2018-05-18T04:23:13.482Z,11.08
2018-05-18T04:25:42.127Z,11.08
2018-05-18T04:28:10.503Z,11.13
2018-05-18T04:30:38.839Z,11.14
2018-05-18T04:33:07.181Z,11.18
2018-05-18T04:35:35.516Z,11.26
2018-05-18T04:38:03.917Z,11.39
2018-05-18T04:40:32.231Z,11.95
2018-05-18T04:43:00.572Z,12.19
2018-05-18T04:45:28.926Z,12.35
2018-05-18T04:47:57.346Z,12.50
2018-05-18T04:50:25.683Z,12.46
2018-05-18T04:52:54.030Z,12.45
2018-05-18T04:55:22.401Z,12.50
2018-05-18T04:57:50.816Z,12.31
2018-05-18T05:00:19.237Z,12.19
2018-05-18T05:02:47.714Z,11.94
2018-05-18T05:05:16.073Z,11.97
2018-05-18T05:07:44.462Z,11.99
2018-05-18T05:10:13.106Z,12.06
2018-05-18T05:12:41.490Z,12.05
2018-05-18T05:15:09.785Z,12.12
2018-05-18T05:17:38.173Z,12.05
2018-05-18T05:20:06.646Z,12.13
2018-05-18T05:22:35.087Z,12.19
2018-05-18T05:25:03.468Z,12.18
2018-05-18T05:27:31.827Z,12.32
2018-05-18T05:30:00.225Z,12.45
2018-05-18T05:32:28.561Z,12.41
2018-05-18T05:34:56.907Z,12.37
2018-05-18T05:37:25.252Z,12.35
2018-05-18T05:39:53.743Z,12.34
2018-05-18T05:42:22.108Z,12.43
2018-05-18T05:44:50.421Z,12.42
2018-05-18T05:47:19.280Z,12.48
2018-05-18T05:49:47.614Z,12.41
2018-05-18T05:52:15.959Z,12.38
2018-05-18T05:54:44.350Z,12.54
2018-05-18T05:57:12.745Z,12.53
2018-05-18T05:59:41.088Z,12.52
2018-05-18T06:02:09.959Z,12.54
2018-05-18T06:04:38.297Z,12.55
2018-05-18T06:07:06.713Z,12.55
2018-05-18T06:09:35.547Z,12.61
2018-05-18T06:12:03.864Z,12.61
2018-05-18T06:14:32.214Z,12.72
2018-05-18T06:17:00.578Z,12.84
2018-05-18T06:19:29.056Z,12.89
2018-05-18T06:21:57.386Z,12.83
2018-05-18T06:24:25.730Z,13.09
2018-05-18T06:26:54.155Z,13.17
2018-05-18T06:29:22.507Z,13.03
2018-05-18T06:31:50.835Z,13.05
2018-05-18T06:34:19.184Z,13.09
2018-05-18T06:36:47.524Z,13.05
2018-05-18T06:39:16.236Z,13.13
2018-05-18T06:41:44.609Z,13.13
2018-05-18T06:44:12.965Z,13.27
2018-05-18T06:46:41.349Z,13.29
2018-05-18T06:49:09.815Z,13.35
2018-05-18T06:51:38.159Z,13.33
2018-05-18T06:54:06.485Z,13.39
2018-05-18T06:56:34.872Z,13.64
2018-05-18T06:59:03.214Z,13.64
2018-05-18T07:01:31.559Z,13.69
2018-05-18T07:03:59.966Z,13.65
2018-05-18T07:06:28.267Z,13.65
2018-05-18T07:08:56.645Z,13.58
2018-05-18T07:11:28.549Z,13.47
2018-05-18T07:13:57.465Z,13.59
2018-05-18T07:16:25.942Z,13.73
2018-05-18T07:18:54.199Z,13.57
2018-05-18T07:21:22.554Z,13.55
2018-05-18T07:23:50.994Z,13.46
2018-05-18T07:26:19.427Z,13.44
2018-05-18T07:28:48.225Z,13.70
2018-05-18T07:31:16.574Z,13.65
2018-05-18T07:33:44.960Z,13.92
2018-05-18T07:36:13.403Z,13.83
2018-05-18T07:38:41.729Z,13.81
2018-05-18T07:41:10.072Z,13.66
2018-05-18T07:43:38.400Z,13.80
2018-05-18T07:46:06.743Z,13.82
2018-05-18T07:48:35.100Z,14.02
2018-05-18T07:51:03.519Z,14.02
2018-05-18T07:53:31.948Z,14.11
2018-05-18T07:56:00.303Z,13.97
2018-05-18T07:58:28.669Z,14.06
2018-05-18T08:00:56.997Z,13.95
2018-05-18T08:03:25.372Z,13.92
2018-05-18T08:05:53.723Z,14.02
2018-05-18T08:08:22.060Z,14.05
2018-05-18T08:10:50.465Z,14.08
2018-05-18T08:13:18.752Z,14.19
2018-05-18T08:15:47.105Z,14.07
2018-05-18T08:18:15.438Z,13.97
2018-05-18T08:20:43.798Z,14.09
2018-05-18T08:23:12.108Z,14.31
2018-05-18T08:25:40.463Z,14.29
2018-05-18T08:28:11.683Z,14.37
2018-05-18T08:30:51.717Z,14.40
2018-05-18T08:33:20.059Z,14.51
2018-05-18T08:35:48.500Z,14.76
2018-05-18T08:38:16.845Z,14.76
2018-05-18T08:40:45.194Z,14.56
2018-05-18T08:43:13.528Z,14.61
2018-05-18T08:45:41.973Z,14.52
2018-05-18T08:48:10.341Z,14.30
2018-05-18T08:50:41.023Z,14.50
2018-05-18T08:53:09.393Z,14.64
2018-05-18T08:55:40.109Z,14.88
2018-05-18T08:58:08.438Z,14.86
2018-05-18T09:00:36.852Z,14.80
2018-05-18T09:03:05.212Z,14.78
2018-05-18T09:05:33.568Z,14.73
2018-05-18T09:08:02.063Z,14.73
2018-05-18T09:10:30.447Z,14.96
2018-05-18T09:12:58.776Z,15.08
2018-05-18T09:15:27.100Z,15.04
2018-05-18T09:17:55.441Z,14.98
2018-05-18T09:20:23.872Z,15.03
2018-05-18T09:22:52.223Z,15.07
2018-05-18T09:25:20.556Z,14.91
2018-05-18T09:27:48.955Z,15.09
2018-05-18T09:30:17.279Z,15.04
2018-05-18T09:32:45.625Z,15.16
2018-05-18T09:35:13.963Z,15.20
2018-05-18T09:37:42.315Z,15.32
2018-05-18T09:40:10.675Z,15.44
2018-05-18T09:42:39.101Z,15.29
2018-05-18T09:45:07.556Z,15.41
2018-05-18T09:47:35.865Z,15.54
2018-05-18T09:50:04.275Z,15.77
2018-05-18T09:52:32.608Z,15.67
2018-05-18T09:55:01.101Z,15.63
2018-05-18T09:57:29.351Z,15.78
2018-05-18T09:59:57.696Z,15.89
2018-05-18T10:02:26.038Z,16.16
2018-05-18T10:04:54.433Z,16.06
2018-05-18T10:07:22.794Z,16.20
2018-05-18T10:09:51.136Z,16.46
2018-05-18T10:12:19.597Z,16.93
2018-05-18T10:14:47.891Z,16.67
2018-05-18T10:17:16.300Z,16.36
2018-05-18T10:19:44.661Z,16.34
2018-05-18T10:22:13.023Z,16.09
2018-05-18T10:24:41.363Z,15.93
2018-05-18T10:27:09.708Z,15.79
2018-05-18T10:29:38.043Z,16.01
2018-05-18T10:32:06.440Z,15.94
2018-05-18T10:34:34.841Z,16.09
2018-05-18T10:37:03.194Z,15.89
2018-05-18T10:39:31.635Z,15.83
2018-05-18T10:42:00.020Z,15.85
2018-05-18T10:44:28.359Z,16.13
2018-05-18T10:46:56.712Z,16.18
2018-05-18T10:49:25.112Z,16.29
2018-05-18T10:51:53.485Z,16.11
2018-05-18T10:54:24.731Z,16.05
2018-05-18T10:56:53.085Z,16.16
2018-05-18T10:59:21.534Z,15.89
2018-05-18T11:01:49.867Z,16.29
2018-05-18T11:04:18.195Z,16.51
2018-05-18T11:06:46.624Z,16.49
2018-05-18T11:09:15.054Z,16.76
2018-05-18T11:11:43.399Z,16.23
2018-05-18T11:14:12.058Z,16.59
2018-05-18T11:16:40.289Z,16.64
2018-05-18T11:19:08.666Z,16.89
2018-05-18T11:21:37.004Z,16.73
2018-05-18T11:24:05.335Z,17.19
2018-05-18T11:26:33.666Z,17.18
2018-05-18T11:29:02.037Z,17.44
2018-05-18T11:31:30.369Z,17.14
2018-05-18T11:33:58.716Z,17.21
2018-05-18T11:36:27.045Z,16.99
2018-05-18T11:38:55.403Z,17.20
2018-05-18T11:41:24.203Z,17.39
2018-05-18T11:43:52.590Z,17.58
2018-05-18T11:46:20.976Z,17.47
2018-05-18T11:48:49.386Z,17.25
2018-05-18T11:51:17.715Z,17.03
2018-05-18T11:53:46.074Z,16.54
2018-05-18T11:56:15.076Z,16.40
2018-05-18T11:58:43.443Z,16.58
2018-05-18T12:01:11.946Z,16.34
2018-05-18T12:03:40.279Z,16.31
2018-05-18T12:06:08.619Z,16.56
2018-05-18T12:08:37.609Z,16.98
2018-05-18T12:11:05.911Z,17.13
2018-05-18T12:13:34.258Z,17.08
2018-05-18T12:16:02.608Z,17.33
2018-05-18T12:18:30.951Z,17.71
2018-05-18T12:20:59.391Z,17.78
2018-05-18T12:23:27.788Z,17.47
2018-05-18T12:25:56.128Z,17.44
2018-05-18T12:28:24.465Z,17.38
2018-05-18T12:30:52.810Z,17.11
2018-05-18T12:33:21.152Z,17.44
2018-05-18T12:35:49.496Z,17.34
2018-05-18T12:38:18.010Z,17.63
2018-05-18T12:40:46.284Z,17.33
2018-05-18T12:43:14.729Z,17.66
2018-05-18T12:45:43.127Z,17.67
2018-05-18T12:48:11.448Z,17.37
2018-05-18T12:50:39.820Z,17.22
2018-05-18T12:53:08.150Z,17.55
2018-05-18T12:55:36.499Z,17.40
2018-05-18T12:58:04.847Z,17.78
2018-05-18T13:00:33.263Z,17.65
2018-05-18T13:03:01.681Z,17.62
2018-05-18T13:05:30.044Z,17.95
2018-05-18T13:07:58.395Z,18.08
2018-05-18T13:10:26.831Z,18.33
2018-05-18T13:12:55.323Z,18.28
2018-05-18T13:15:23.668Z,18.17
2018-05-18T13:17:52.097Z,18.03
2018-05-18T13:20:20.505Z,17.80
2018-05-18T13:22:48.895Z,17.58
2018-05-18T13:25:17.247Z,17.92
2018-05-18T13:27:45.787Z,19.47
2018-05-18T13:30:14.127Z,20.15
2018-05-18T13:32:42.467Z,19.26
2018-05-18T13:35:10.814Z,19.25
2018-05-18T13:37:39.239Z,18.74
2018-05-18T13:40:07.648Z,18.73
2018-05-18T13:42:36.997Z,18.62
2018-05-18T13:45:05.356Z,18.66
2018-05-18T13:47:33.683Z,19.14
2018-05-18T13:50:02.044Z,18.53
2018-05-18T13:52:30.419Z,18.35
2018-05-18T13:54:58.853Z,18.85
2018-05-18T13:57:27.226Z,18.51
2018-05-18T13:59:55.564Z,18.37
2018-05-18T14:02:23.921Z,18.06
2018-05-18T14:04:52.287Z,18.13
2018-05-18T14:07:20.602Z,18.40
2018-05-18T14:09:48.947Z,19.38
2018-05-18T14:12:17.284Z,19.80
2018-05-18T14:14:45.625Z,20.64
2018-05-18T14:17:14.011Z,20.07
2018-05-18T14:19:42.336Z,19.81
2018-05-18T14:22:10.675Z,19.18
2018-05-18T14:24:39.117Z,19.16
2018-05-18T14:27:07.459Z,18.86
2018-05-18T14:29:35.865Z,18.67
2018-05-18T14:32:04.207Z,18.41
2018-05-18T14:34:32.532Z,18.31
2018-05-18T14:37:00.884Z,18.38
2018-05-18T14:39:29.327Z,17.83
2018-05-18T14:41:57.704Z,17.40
2018-05-18T14:44:26.111Z,17.60
2018-05-18T14:46:54.461Z,18.29
2018-05-18T14:49:22.794Z,18.81
2018-05-18T14:51:51.239Z,18.83
2018-05-18T14:54:19.597Z,18.76
2018-05-18T14:56:48.018Z,18.69
2018-05-18T14:59:16.340Z,18.77
2018-05-18T15:01:44.714Z,18.33
2018-05-18T15:04:13.059Z,18.17
2018-05-18T15:06:41.452Z,18.60
2018-05-18T15:09:09.883Z,18.22
2018-05-18T15:11:38.284Z,18.23
2018-05-18T15:14:06.637Z,17.97
2018-05-18T15:16:34.981Z,17.68
2018-05-18T15:19:03.343Z,17.83
2018-05-18T15:21:31.696Z,17.84
2018-05-18T15:24:00.056Z,17.65
2018-05-18T15:26:28.435Z,17.75
2018-05-18T15:28:56.765Z,17.32
2018-05-18T15:31:25.093Z,17.02
2018-05-18T15:33:53.571Z,17.13
2018-05-18T15:36:22.004Z,17.58
2018-05-18T15:38:50.413Z,18.14
2018-05-18T15:41:18.784Z,18.70
2018-05-18T15:43:47.175Z,19.13
2018-05-18T15:46:15.870Z,19.11
2018-05-18T15:48:44.243Z,18.51
2018-05-18T15:51:12.659Z,18.36
2018-05-18T15:53:41.032Z,18.00
2018-05-18T15:56:09.446Z,17.61
2018-05-18T15:58:37.812Z,17.34
2018-05-18T16:01:06.140Z,17.02
2018-05-18T16:03:34.477Z,16.84
2018-05-18T16:06:02.826Z,16.58
2018-05-18T16:08:31.160Z,16.43
2018-05-18T16:10:59.491Z,16.48
2018-05-18T16:13:27.834Z,16.41
2018-05-18T16:15:56.175Z,16.60
2018-05-18T16:18:24.522Z,16.60
2018-05-18T16:20:52.875Z,16.51
2018-05-18T16:23:21.204Z,16.41
2018-05-18T16:25:49.562Z,16.36
2018-05-18T16:28:18.017Z,16.31
2018-05-18T16:30:46.313Z,16.27
2018-05-18T16:33:14.717Z,16.04
2018-05-18T16:35:43.050Z,16.15
2018-05-18T16:38:11.384Z,16.16
2018-05-18T16:40:39.760Z,16.16
2018-05-18T16:43:08.118Z,16.13
2018-05-18T16:45:36.484Z,16.07
2018-05-18T16:48:04.832Z,16.06
2018-05-18T16:50:33.268Z,16.00
2018-05-18T16:53:01.655Z,16.15
2018-05-18T16:55:30.048Z,16.12
2018-05-18T16:57:58.472Z,16.12
2018-05-18T17:00:26.927Z,15.90
2018-05-18T17:02:55.274Z,16.01
2018-05-18T17:05:23.716Z,15.87
2018-05-18T17:07:52.107Z,15.70
2018-05-18T17:10:20.460Z,15.67
2018-05-18T17:12:48.936Z,15.69
2018-05-18T17:15:17.275Z,15.58
2018-05-18T17:17:45.762Z,15.63
2018-05-18T17:20:14.210Z,15.46
2018-05-18T17:22:42.589Z,15.54
2018-05-18T17:25:10.946Z,15.53
2018-05-18T17:27:39.289Z,15.31
2018-05-18T17:30:07.643Z,15.37
2018-05-18T17:32:36.047Z,15.43
2018-05-18T17:35:05.620Z,15.43
2018-05-18T17:37:33.958Z,15.26
2018-05-18T17:40:02.351Z,15.20
2018-05-18T17:42:30.761Z,15.07
2018-05-18T17:44:59.129Z,15.04
2018-05-18T17:47:27.524Z,15.09
2018-05-18T17:49:55.908Z,15.03
2018-05-18T17:52:24.300Z,14.85
2018-05-18T17:54:52.640Z,14.87
2018-05-18T17:57:21.129Z,14.89
2018-05-18T17:59:49.686Z,15.00
2018-05-18T18:02:18.032Z,14.81
2018-05-18T18:04:46.364Z,14.64
2018-05-18T18:07:14.755Z,14.62
2018-05-18T18:09:43.888Z,14.46
2018-05-18T18:12:12.243Z,14.43
2018-05-18T18:14:40.685Z,14.35
2018-05-18T18:17:09.031Z,14.35
2018-05-18T18:19:38.184Z,14.24
2018-05-18T18:22:06.553Z,14.16
2018-05-18T18:24:34.883Z,14.14
2018-05-18T18:27:03.302Z,14.15
2018-05-18T18:29:31.775Z,14.08
2018-05-18T18:32:00.094Z,14.01
2018-05-18T18:34:28.448Z,13.94
2018-05-18T18:36:56.788Z,13.93
2018-05-18T18:39:26.348Z,13.84
2018-05-18T18:41:54.696Z,13.84
2018-05-18T18:44:23.033Z,13.81
2018-05-18T18:46:51.396Z,13.78
2018-05-18T18:49:19.828Z,13.64
2018-05-18T18:51:48.157Z,13.64
2018-05-18T18:54:16.495Z,13.64
2018-05-18T18:56:44.860Z,13.59
2018-05-18T18:59:13.205Z,13.54
2018-05-18T19:01:41.539Z,13.54
2018-05-18T19:04:10.221Z,13.60
2018-05-18T19:06:38.581Z,13.57
2018-05-18T19:09:06.925Z,13.49
2018-05-18T19:11:35.260Z,13.52
2018-05-18T19:14:03.604Z,13.50
2018-05-18T19:16:31.950Z,13.47
2018-05-18T19:19:00.311Z,13.45
2018-05-18T19:21:28.710Z,13.36
2018-05-18T19:23:57.083Z,13.30
2018-05-18T19:26:25.467Z,13.17
2018-05-18T19:28:53.804Z,13.02
2018-05-18T19:31:22.150Z,12.84
2018-05-18T19:33:50.536Z,12.73
2018-05-18T19:36:18.938Z,12.59
2018-05-18T19:38:47.280Z,12.48
2018-05-18T19:41:16.387Z,12.36
2018-05-18T19:43:44.833Z,12.24
2018-05-18T19:46:13.147Z,12.13
2018-05-18T19:48:41.494Z,12.06
2018-05-18T19:51:09.910Z,11.99
2018-05-18T19:53:38.271Z,11.84
2018-05-18T19:56:07.248Z,11.73
2018-05-18T19:58:36.256Z,11.63
2018-05-18T20:01:04.712Z,11.55
2018-05-18T20:03:33.193Z,11.45
2018-05-18T20:06:01.604Z,11.39
2018-05-18T20:08:29.985Z,11.33
2018-05-18T20:10:58.476Z,11.32
2018-05-18T20:13:27.554Z,11.34
2018-05-18T20:15:56.002Z,11.42
2018-05-18T20:18:24.353Z,11.51
2018-05-18T20:20:52.709Z,11.59
2018-05-18T20:23:21.071Z,11.71
2018-05-18T20:25:49.463Z,11.80
2018-05-18T20:28:17.792Z,11.87
2018-05-18T20:30:46.140Z,11.94
2018-05-18T20:33:14.585Z,11.99
2018-05-18T20:35:43.139Z,12.06
2018-05-18T20:38:11.647Z,12.15
2018-05-18T20:40:39.931Z,12.18
2018-05-18T20:43:08.290Z,12.26
2018-05-18T20:45:36.621Z,12.28
2018-05-18T20:48:04.974Z,12.27
2018-05-18T20:50:33.372Z,12.31
2018-05-18T20:53:01.774Z,12.32
2018-05-18T20:55:30.119Z,12.46
2018-05-18T20:57:58.562Z,12.43
2018-05-18T21:00:26.955Z,12.41
2018-05-18T21:02:55.329Z,12.43
2018-05-18T21:05:23.719Z,12.43
2018-05-18T21:07:52.068Z,12.49
2018-05-18T21:10:20.413Z,12.49
2018-05-18T21:12:48.751Z,12.55
2018-05-18T21:15:17.194Z,12.69
2018-05-18T21:17:45.783Z,12.69
2018-05-18T21:20:14.221Z,12.75
2018-05-18T21:22:42.551Z,12.75
2018-05-18T21:25:10.909Z,12.73
2018-05-18T21:27:39.263Z,12.64
2018-05-18T21:30:07.644Z,12.60
2018-05-18T21:32:36.048Z,12.59
2018-05-18T21:35:04.566Z,12.62
2018-05-18T21:37:32.903Z,12.67
2018-05-18T21:40:01.324Z,12.64
2018-05-18T21:42:29.712Z,12.66
2018-05-18T21:44:58.110Z,12.67
2018-05-18T21:47:26.515Z,12.67
2018-05-18T21:49:54.856Z,12.70
2018-05-18T21:52:23.399Z,12.73
2018-05-18T21:54:52.759Z,12.67
2018-05-18T21:57:21.091Z,12.62
2018-05-18T21:59:49.441Z,12.66
2018-05-18T22:02:17.777Z,12.69
2018-05-18T22:04:46.269Z,12.66
2018-05-18T22:07:14.603Z,12.64
2018-05-18T22:09:42.956Z,12.72
2018-05-18T22:12:11.296Z,12.72
2018-05-18T22:14:39.637Z,12.68
2018-05-18T22:17:08.033Z,12.69
2018-05-18T22:19:36.431Z,12.69
2018-05-18T22:22:04.800Z,12.70
2018-05-18T22:24:33.133Z,12.66
2018-05-18T22:27:01.500Z,12.70
2018-05-18T22:29:29.834Z,12.74
2018-05-18T22:31:58.988Z,12.77
2018-05-18T22:34:27.390Z,12.78
2018-05-18T22:36:55.741Z,12.83
2018-05-18T22:39:24.105Z,12.81
2018-05-18T22:41:52.521Z,12.85
2018-05-18T22:44:20.879Z,12.87
2018-05-18T22:46:49.256Z,12.83
2018-05-18T22:49:17.583Z,12.78
2018-05-18T22:51:45.935Z,12.72
2018-05-18T22:54:14.315Z,12.69
2018-05-18T22:56:42.677Z,12.69
2018-05-18T22:59:11.251Z,12.70
2018-05-18T23:01:39.606Z,12.69
2018-05-18T23:04:07.941Z,12.76
2018-05-18T23:06:36.300Z,12.74
2018-05-18T23:09:05.337Z,12.73
2018-05-18T23:11:33.695Z,12.71
2018-05-18T23:14:02.053Z,12.69
2018-05-18T23:16:30.477Z,12.68
2018-05-18T23:18:58.908Z,12.64
2018-05-18T23:21:27.260Z,12.66
2018-05-18T23:23:55.603Z,12.68
2018-05-18T23:26:24.023Z,12.67
2018-05-18T23:28:52.360Z,12.66
2018-05-18T23:31:20.697Z,12.65
2018-05-18T23:33:49.123Z,12.65
2018-05-18T23:36:17.502Z,12.66
2018-05-18T23:38:45.900Z,12.63
2018-05-18T23:41:14.236Z,12.64
2018-05-18T23:43:42.588Z,12.64
2018-05-18T23:46:10.915Z,12.64
2018-05-18T23:48:39.412Z,12.66
2018-05-18T23:51:07.765Z,12.65
2018-05-18T23:53:36.647Z,12.67
2018-05-18T23:56:04.977Z,12.68
2018-05-18T23:58:33.355Z,12.69
